Hauptseite
METAR-TAF:

METAR-TAF

Flughäfen :

Flughafen Metz-Nancy-Lothringen

Metz-Nancy-Lorraine, Frankreich

Breite: 48-59N, Länge: 006-15E, Höhe: 264 m

Beobachtung

Neuester Wetterbericht von vor 48 Minuten, um 19:30 UTC
Wind 3 kt aus West/Südwest
Temperatur 6°C
Luftfeuchtigkeit 70%
Luftdruck 1020 hPa
Sichtweite 10 km oder mehr
keine Wolken unter 1500 m und keine Kumulonimbus oder Gewitterwolken

METAR: LFJL 031930Z AUTO 25003KT CAVOK 06/01 Q1020

Zeit: 22:18 (20:18 UTC)


TAF: fehlend

Wetterbeobachtungen und Prognosen von mehr als 4000 Flughäfen (METAR und TAF Bericht).

Die verfügbaren Stationen werden durch gelbe und rote Markierungen auf der Karte dargestellt.

Führen Sie die Maus auf sie, um den Namen der Station zu sehen.

Darauf klicken, um die Beobachtung von Wetterbeobachtungen und Prognosen zu sehen.

Um die Karte zu ändern : klicken Sie auf den grünen Tasten mit einem schwarzen Kreuz Zum Vergrößern, auf den grünen Button mit einem Gedankenstrich zu verkleinern, oder auf die grünen Pfeile für benachbarte Karten.


METAR-TAF: